Time;durP1;ratioP1;P1;durP2;ratioP2;P2;SDS_P1;SDS_P2;PMS_P1;PMS_P2;Temp;Humidity;BMP_temperature;BMP_pressure;BME280_temperature;BME280_humidity;BME280_pressure;Samples;Min_cycle;Max_cycle;Signal;HPM_P1;HPM_P2
2023/02/05 00:01:31;;;;;;;4.50;2.40;;;;;;;-1.02;59.83;101074.52;107878;1257;71049;-76
2023/02/05 00:03:58;;;;;;;5.30;2.70;;;;;;;-1.00;59.80;101073.98;107903;1257;72611;-76
2023/02/05 00:06:25;;;;;;;5.80;3.30;;;;;;;-0.99;59.88;101077.48;107852;1257;71797;-77
2023/02/05 00:08:53;;;;;;;4.60;2.60;;;;;;;-0.98;59.91;101078.73;107846;1257;63302;-77
2023/02/05 00:11:20;;;;;;;4.10;2.20;;;;;;;-0.97;59.89;101081.13;107741;1256;61333;-76
2023/02/05 00:13:48;;;;;;;4.90;2.70;;;;;;;-0.97;59.87;101084.23;107901;1257;74036;-76
2023/02/05 00:16:17;;;;;;;5.00;2.70;;;;;;;-0.98;59.78;101085.59;108019;1257;73727;-77
2023/02/05 00:18:44;;;;;;;3.90;2.40;;;;;;;-0.97;59.98;101084.96;108181;1254;73859;-76
2023/02/05 00:21:12;;;;;;;5.70;2.90;;;;;;;-0.92;60.04;101083.97;108010;1254;60370;-76
2023/02/05 00:23:40;;;;;;;4.80;2.90;;;;;;;-0.90;60.10;101081.03;107943;1254;61446;-75
2023/02/05 00:26:09;;;;;;;4.90;2.80;;;;;;;-0.89;60.05;101081.09;108063;1254;75334;-76
2023/02/05 00:28:37;;;;;;;5.10;2.40;;;;;;;-0.87;60.08;101080.90;108062;1254;71638;-76
2023/02/05 00:31:09;;;;;;;5.50;3.20;;;;;;;-0.85;60.11;101084.44;108089;1254;73003;-76
2023/02/05 00:33:37;;;;;;;5.00;2.80;;;;;;;-0.84;60.10;101081.81;108096;1254;61056;-77
2023/02/05 00:36:04;;;;;;;6.20;3.10;;;;;;;-0.82;60.24;101075.16;108000;1254;60398;-77
2023/02/05 00:38:32;;;;;;;6.20;3.40;;;;;;;-0.80;60.21;101081.89;108045;1254;74790;-77
2023/02/05 00:40:59;;;;;;;6.60;3.40;;;;;;;-0.77;60.34;101079.83;108036;1253;72690;-76
2023/02/05 00:43:26;;;;;;;5.50;2.80;;;;;;;-0.73;60.37;101080.02;108072;1257;73343;-76
2023/02/05 00:45:53;;;;;;;5.60;3.00;;;;;;;-0.70;60.43;101080.08;108381;1254;62421;-77
2023/02/05 00:48:20;;;;;;;6.90;3.00;;;;;;;-0.70;60.29;101081.81;108139;1254;61500;-77
2023/02/05 00:50:48;;;;;;;5.00;2.90;;;;;;;-0.67;60.28;101088.41;107997;1254;74660;-77
2023/02/05 00:53:16;;;;;;;4.50;2.50;;;;;;;-0.65;60.22;101085.64;108176;1254;73017;-77
2023/02/05 00:55:43;;;;;;;5.50;2.90;;;;;;;-0.62;60.31;101086.45;108160;1257;73793;-77
2023/02/05 00:58:10;;;;;;;5.50;3.00;;;;;;;-0.62;60.31;101084.95;108326;1253;59684;-77
2023/02/05 01:00:38;;;;;;;5.10;2.90;;;;;;;-0.59;60.31;101078.83;108234;1254;59713;-77
2023/02/05 01:03:05;;;;;;;5.00;3.20;;;;;;;-0.56;60.29;101084.29;108360;1253;74658;-77
2023/02/05 01:05:35;;;;;;;6.10;3.00;;;;;;;-0.56;60.40;101080.26;108437;1254;71878;-78
2023/02/05 01:08:04;;;;;;;5.20;3.00;;;;;;;-0.57;60.16;101084.72;108391;1254;72874;-77
2023/02/05 01:10:31;;;;;;;6.30;3.20;;;;;;;-0.56;60.29;101086.98;108384;1254;60413;-77
2023/02/05 01:12:59;;;;;;;4.30;2.60;;;;;;;-0.54;60.28;101083.80;108212;1254;61887;-77
2023/02/05 01:15:26;;;;;;;4.90;2.80;;;;;;;-0.54;60.46;101085.13;108346;1254;74024;-77
2023/02/05 01:17:53;;;;;;;4.90;2.60;;;;;;;-0.53;60.62;101083.64;108284;1254;72465;-77
2023/02/05 01:20:20;;;;;;;5.90;2.90;;;;;;;-0.51;60.57;101079.10;108191;1254;72698;-77
2023/02/05 01:22:48;;;;;;;5.30;3.20;;;;;;;-0.51;60.72;101079.42;108282;1256;60319;-77
2023/02/05 01:25:16;;;;;;;5.00;2.90;;;;;;;-0.50;60.46;101086.14;108361;1253;60470;-77
2023/02/05 01:27:44;;;;;;;5.60;3.10;;;;;;;-0.47;60.54;101086.16;108378;1254;72637;-76
2023/02/05 01:30:13;;;;;;;5.30;3.20;;;;;;;-0.26;60.12;101083.55;108200;1254;72957;-77
2023/02/05 01:32:41;;;;;;;4.60;2.80;;;;;;;-0.19;60.08;101088.40;108330;1254;71627;-76
2023/02/05 01:35:08;;;;;;;5.90;3.20;;;;;;;-0.17;59.85;101086.49;108221;1253;60415;-76
2023/02/05 01:37:36;;;;;;;5.10;3.00;;;;;;;-0.16;59.87;101083.92;108203;1254;60566;-77
2023/02/05 01:40:07;;;;;;;4.20;2.80;;;;;;;-0.16;59.81;101085.20;108145;1254;74584;-76
2023/02/05 01:42:35;;;;;;;5.20;3.10;;;;;;;-0.16;59.70;101091.94;108253;1254;71989;-77
2023/02/05 01:45:31;;;;;;;5.10;2.90;;;;;;;-0.18;59.84;101094.27;108260;1254;72080;-77
2023/02/05 01:48:01;;;;;;;4.80;2.90;;;;;;;-0.20;59.74;101098.72;108375;1254;60348;-77
2023/02/05 01:50:28;;;;;;;5.00;2.60;;;;;;;-0.17;59.62;101098.20;108398;1254;59721;-76
2023/02/05 01:52:58;;;;;;;6.40;3.20;;;;;;;-0.15;59.82;101094.05;108328;1257;72069;-76
2023/02/05 01:55:26;;;;;;;5.70;3.00;;;;;;;-0.12;59.84;101093.19;108216;1254;72737;-75
2023/02/05 01:57:53;;;;;;;5.00;3.20;;;;;;;-0.10;59.85;101095.07;108160;1254;73889;-75
2023/02/05 02:00:22;;;;;;;5.50;3.60;;;;;;;-0.07;59.81;101096.10;108271;1254;60538;-76
2023/02/05 02:02:49;;;;;;;5.60;3.10;;;;;;;-0.05;59.78;101096.10;108233;1253;61031;-76
2023/02/05 02:05:18;;;;;;;5.50;3.10;;;;;;;-0.04;59.80;101091.46;108143;1256;74105;-77
2023/02/05 02:07:45;;;;;;;4.90;2.90;;;;;;;-0.05;59.55;101096.95;108081;1253;70860;-76
2023/02/05 02:10:13;;;;;;;5.70;3.20;;;;;;;-0.03;59.74;101100.26;108393;1254;72416;-77
2023/02/05 02:12:41;;;;;;;6.00;3.20;;;;;;;-0.02;59.75;101099.95;108137;1258;61118;-76
2023/02/05 02:15:17;;;;;;;5.30;3.30;;;;;;;-0.02;59.59;101098.05;108197;1252;61286;-76
2023/02/05 02:17:46;;;;;;;4.60;2.80;;;;;;;-0.03;59.76;101095.01;108269;1254;75061;-78
2023/02/05 02:20:15;;;;;;;6.10;3.20;;;;;;;-0.03;59.69;101093.77;108332;1254;72837;-78
2023/02/05 02:23:06;;;;;;;5.20;3.10;;;;;;;-0.04;59.89;101097.04;108451;1254;72941;-77
2023/02/05 02:26:04;;;;;;;5.20;2.90;;;;;;;-0.05;59.89;101094.45;108299;1253;60961;-76
2023/02/05 02:28:50;;;;;;;5.50;3.30;;;;;;;-0.04;59.94;101096.98;108329;1253;61436;-77
2023/02/05 02:31:18;;;;;;;5.40;3.00;;;;;;;-0.01;59.94;101095.09;108222;1254;73524;-78
2023/02/05 02:33:47;;;;;;;6.00;3.10;;;;;;;0.01;60.04;101095.98;108276;1254;73172;-78
2023/02/05 02:36:34;;;;;;;4.90;3.00;;;;;;;0.00;59.97;101090.08;108293;1254;71821;-77
2023/02/05 02:39:06;;;;;;;6.00;3.20;;;;;;;-0.24;60.36;101091.58;108264;1254;61471;-78
2023/02/05 02:41:47;;;;;;;6.70;3.50;;;;;;;-0.08;60.39;101091.69;108185;1254;61191;-78
2023/02/05 02:45:06;;;;;;;6.10;3.30;;;;;;;-0.01;60.06;101098.43;108133;1254;74749;-78
2023/02/05 02:47:37;;;;;;;6.50;3.40;;;;;;;-0.01;59.99;101095.61;108304;1255;73718;-77
2023/02/05 02:50:19;;;;;;;5.00;3.20;;;;;;;0.01;59.89;101093.71;108240;1253;73986;-78
2023/02/05 02:52:47;;;;;;;6.40;3.60;;;;;;;0.03;60.04;101093.45;108250;1255;60417;-76
2023/02/05 02:55:14;;;;;;;5.70;3.50;;;;;;;0.04;60.03;101088.27;108193;1254;61319;-77
2023/02/05 02:57:44;;;;;;;6.10;3.40;;;;;;;0.04;60.07;101092.14;108245;1256;74843;-76
2023/02/05 03:00:13;;;;;;;6.50;3.40;;;;;;;0.03;60.14;101089.92;108270;1256;72341;-76
2023/02/05 03:02:41;;;;;;;5.20;3.20;;;;;;;0.04;60.17;101092.82;108286;1256;72607;-76
2023/02/05 03:05:10;;;;;;;5.90;3.40;;;;;;;0.05;60.23;101097.38;108132;1254;61482;-77
2023/02/05 03:07:44;;;;;;;6.30;3.60;;;;;;;0.07;60.50;101101.87;108219;1253;61319;-77
2023/02/05 03:10:19;;;;;;;5.50;3.30;;;;;;;0.07;60.50;101105.75;108246;1254;71623;-77
2023/02/05 03:12:47;;;;;;;5.60;3.50;;;;;;;0.07;60.66;101103.11;108293;1254;73640;-76
2023/02/05 03:15:14;;;;;;;6.10;3.40;;;;;;;0.09;60.54;101104.52;108122;1259;73852;-76
2023/02/05 03:17:42;;;;;;;6.70;3.80;;;;;;;0.08;60.46;101105.84;108265;1257;60426;-76
2023/02/05 03:20:27;;;;;;;7.00;3.60;;;;;;;0.07;60.51;101100.45;108358;1254;60410;-76
2023/02/05 03:22:55;;;;;;;6.60;3.80;;;;;;;0.07;60.62;101100.82;108399;1254;73309;-76
2023/02/05 03:25:22;;;;;;;6.00;3.80;;;;;;;0.08;60.73;101104.58;108230;1256;73684;-76
2023/02/05 03:27:50;;;;;;;5.80;3.30;;;;;;;0.08;60.81;101097.83;108376;1254;71944;-76
2023/02/05 03:30:18;;;;;;;5.10;3.20;;;;;;;0.07;60.80;101102.66;108301;1256;60989;-76
2023/02/05 03:33:23;;;;;;;5.00;3.20;;;;;;;0.06;60.92;101102.16;108228;1254;60512;-76
2023/02/05 03:36:11;;;;;;;5.80;3.50;;;;;;;0.06;61.05;101105.52;108225;1254;75067;-77
2023/02/05 03:38:51;;;;;;;6.50;3.80;;;;;;;0.03;60.92;101103.80;108422;1257;71083;-76
2023/02/05 03:41:55;;;;;;;5.30;3.20;;;;;;;0.03;61.08;101098.02;108714;1253;70876;-76
2023/02/05 03:44:38;;;;;;;5.70;3.50;;;;;;;0.05;61.03;101098.51;108325;1256;60714;-76
2023/02/05 03:47:15;;;;;;;6.30;3.60;;;;;;;0.03;61.20;101100.29;108308;1254;61109;-76
2023/02/05 03:50:07;;;;;;;6.10;3.70;;;;;;;0.01;61.30;101106.92;108328;1257;72860;-75
2023/02/05 03:52:37;;;;;;;6.10;3.70;;;;;;;0.03;61.29;101110.39;108337;1254;70801;-78
2023/02/05 03:55:06;;;;;;;4.40;3.10;;;;;;;0.05;61.22;101109.30;108318;1256;72679;-78
2023/02/05 03:57:48;;;;;;;6.40;3.80;;;;;;;0.05;61.25;101111.27;108081;1254;60755;-78
2023/02/05 04:00:18;;;;;;;5.80;3.20;;;;;;;0.08;61.09;101108.42;108212;1254;60506;-78
2023/02/05 04:02:46;;;;;;;7.10;3.70;;;;;;;0.09;61.22;101108.12;108130;1259;74009;-77
2023/02/05 04:05:19;;;;;;;7.80;3.90;;;;;;;0.10;61.20;101108.52;108188;1257;73917;-78
2023/02/05 04:07:48;;;;;;;6.70;3.80;;;;;;;0.12;61.26;101111.88;108266;1254;72841;-77
2023/02/05 04:10:17;;;;;;;6.30;3.70;;;;;;;0.11;61.21;101113.49;108260;1254;62097;-76
2023/02/05 04:12:46;;;;;;;6.40;4.00;;;;;;;0.13;61.15;101110.83;108331;1257;60594;-76
2023/02/05 04:15:13;;;;;;;6.40;3.80;;;;;;;0.15;61.12;101109.06;108206;1257;73436;-77
2023/02/05 04:17:43;;;;;;;6.80;3.90;;;;;;;0.16;61.21;101109.08;108386;1256;72878;-77
2023/02/05 04:20:10;;;;;;;5.00;3.10;;;;;;;0.19;61.01;101111.14;108358;1254;71677;-77
2023/02/05 04:22:38;;;;;;;7.40;3.70;;;;;;;0.20;60.86;101114.02;108159;1255;60455;-77
2023/02/05 04:25:09;;;;;;;5.80;3.80;;;;;;;0.18;60.94;101115.58;108372;1257;60332;-77
2023/02/05 04:27:36;;;;;;;5.40;3.10;;;;;;;0.17;60.90;101114.20;108294;1254;72867;-77
2023/02/05 04:30:05;;;;;;;6.20;3.70;;;;;;;0.18;60.72;101113.40;108241;1254;71991;-78
2023/02/05 04:32:34;;;;;;;5.20;3.30;;;;;;;0.19;60.95;101115.39;108415;1254;72850;-78
2023/02/05 04:35:01;;;;;;;5.70;3.60;;;;;;;0.18;60.84;101116.67;108401;1254;60268;-77
2023/02/05 04:37:29;;;;;;;5.90;3.70;;;;;;;0.19;60.97;101115.43;108357;1257;60311;-75
2023/02/05 04:39:56;;;;;;;5.50;3.20;;;;;;;0.19;60.94;101116.26;108384;1256;74015;-76
2023/02/05 04:42:23;;;;;;;6.20;3.70;;;;;;;0.21;61.01;101122.75;108423;1253;72692;-76
2023/02/05 04:44:51;;;;;;;6.30;4.00;;;;;;;0.20;60.92;101127.42;108326;1254;72589;-77
2023/02/05 04:47:18;;;;;;;6.50;3.90;;;;;;;0.19;60.87;101130.77;108373;1253;60324;-77
2023/02/05 04:49:45;;;;;;;5.70;3.70;;;;;;;0.18;60.94;101136.48;108354;1254;60444;-77
2023/02/05 04:52:12;;;;;;;7.20;4.50;;;;;;;0.17;61.07;101136.42;108319;1254;72991;-77
2023/02/05 04:54:39;;;;;;;7.20;4.00;;;;;;;0.17;61.16;101135.45;108337;1256;72783;-77
2023/02/05 04:57:06;;;;;;;6.40;4.10;;;;;;;0.19;61.19;101141.71;108653;1253;72026;-75
2023/02/05 04:59:33;;;;;;;6.50;4.10;;;;;;;0.20;61.25;101144.34;108390;1256;60309;-76
2023/02/05 05:02:01;;;;;;;6.50;4.20;;;;;;;0.21;61.21;101146.81;108406;1254;60318;-75
2023/02/05 05:04:28;;;;;;;6.30;3.90;;;;;;;0.21;61.34;101147.90;108330;1254;72804;-77
2023/02/05 05:06:58;;;;;;;5.60;4.00;;;;;;;0.22;61.15;101146.45;108248;1254;71834;-79
2023/02/05 05:09:25;;;;;;;6.30;4.00;;;;;;;0.22;61.11;101147.98;108308;1256;70921;-77
2023/02/05 05:11:53;;;;;;;7.30;4.60;;;;;;;0.23;61.15;101148.75;108322;1254;60339;-78
2023/02/05 05:14:21;;;;;;;7.50;4.30;;;;;;;0.26;61.26;101151.77;108247;1254;60337;-78
2023/02/05 05:16:52;;;;;;;;;;;;;;;0.29;61.06;101151.98;108203;1254;73842;-78
2023/02/05 05:19:19;;;;;;;7.80;4.90;;;;;;;0.29;61.14;101151.40;108303;1254;73478;-77
2023/02/05 05:21:46;;;;;;;6.70;4.50;;;;;;;0.32;61.22;101153.58;108259;1257;74419;-78
2023/02/05 05:24:14;;;;;;;7.30;5.10;;;;;;;0.36;61.17;101154.34;108346;1254;60768;-78
2023/02/05 05:26:43;;;;;;;6.90;4.50;;;;;;;0.39;61.21;101152.30;108410;1253;61318;-77
2023/02/05 05:29:14;;;;;;;7.50;4.90;;;;;;;0.40;61.28;101152.77;108358;1255;73510;-77
2023/02/05 05:31:44;;;;;;;7.40;4.60;;;;;;;0.41;61.15;101158.77;108250;1256;71744;-77
2023/02/05 05:34:11;;;;;;;7.80;4.70;;;;;;;0.41;61.15;101162.41;108335;1254;73461;-77
2023/02/05 05:36:42;;;;;;;8.90;5.10;;;;;;;0.43;61.24;101166.24;108299;1254;60330;-76
2023/02/05 05:44:40;;;;;;;7.10;4.90;;;;;;;0.48;60.98;101176.23;108353;1252;71733;-76
2023/02/05 05:47:07;;;;;;;9.10;5.40;;;;;;;0.49;61.04;101179.84;108399;1254;73373;-78
2023/02/05 05:49:35;;;;;;;7.60;4.90;;;;;;;0.49;61.09;101180.98;108162;1257;60808;-78
2023/02/05 05:52:02;;;;;;;8.30;5.20;;;;;;;0.50;60.99;101183.55;108215;1254;61048;-77
2023/02/05 05:54:29;;;;;;;8.00;5.30;;;;;;;0.53;60.94;101185.48;108256;1254;71700;-78
2023/02/05 05:56:56;;;;;;;8.60;5.50;;;;;;;0.58;61.02;101190.11;108335;1256;72666;-78
2023/02/05 05:59:23;;;;;;;7.10;4.80;;;;;;;0.60;60.96;101192.58;108283;1253;73408;-79
2023/02/05 06:01:51;;;;;;;7.80;5.40;;;;;;;0.61;60.85;101192.07;108267;1254;60312;-77
2023/02/05 06:04:18;;;;;;;8.00;5.10;;;;;;;0.63;60.89;101195.70;108184;1253;60386;-78
2023/02/05 06:06:45;;;;;;;7.30;5.00;;;;;;;0.65;60.83;101199.99;108302;1254;73278;-78
2023/02/05 06:09:13;;;;;;;7.70;5.00;;;;;;;0.67;60.97;101195.41;108219;1254;73708;-77
2023/02/05 06:11:40;;;;;;;7.70;5.20;;;;;;;0.71;60.93;101197.26;108315;1254;71347;-78
2023/02/05 06:14:09;;;;;;;7.60;5.00;;;;;;;0.75;60.95;101195.98;108366;1253;60453;-77
2023/02/05 06:16:36;;;;;;;6.90;5.20;;;;;;;0.78;60.89;101199.99;108269;1254;60401;-79
2023/02/05 06:19:05;;;;;;;9.20;5.60;;;;;;;0.79;60.86;101199.63;108319;1254;74526;-76
2023/02/05 06:21:33;;;;;;;8.40;5.60;;;;;;;0.79;60.87;101199.13;108251;1254;72985;-78
2023/02/05 06:24:00;;;;;;;8.60;5.50;;;;;;;0.82;60.89;101199.86;108289;1254;73544;-79
2023/02/05 06:26:27;;;;;;;8.20;4.90;;;;;;;0.82;60.90;101195.06;108210;1254;60877;-78
2023/02/05 06:28:56;;;;;;;6.90;4.60;;;;;;;0.84;60.84;101200.14;108202;1254;60332;-78
2023/02/05 06:31:23;;;;;;;7.80;5.10;;;;;;;0.86;60.85;101199.05;108104;1254;71929;-80
2023/02/05 06:33:51;;;;;;;7.40;4.70;;;;;;;0.86;60.67;101203.06;108299;1254;73886;-79
2023/02/05 06:36:18;;;;;;;7.20;5.10;;;;;;;0.85;60.55;101205.23;108198;1253;73298;-78
2023/02/05 06:38:44;;;;;;;8.50;5.30;;;;;;;0.87;60.51;101206.59;108283;1254;60399;-79
2023/02/05 06:41:12;;;;;;;9.80;5.40;;;;;;;0.88;60.60;101208.59;108270;1254;61547;-76
2023/02/05 06:43:40;;;;;;;8.10;4.80;;;;;;;0.89;60.49;101216.24;108196;1253;73272;-77
2023/02/05 06:46:07;;;;;;;8.20;5.60;;;;;;;0.89;60.41;101217.66;108195;1254;73949;-78
2023/02/05 06:48:34;;;;;;;9.20;5.60;;;;;;;0.91;60.54;101225.46;108269;1252;71739;-80
2023/02/05 06:51:01;;;;;;;8.30;5.60;;;;;;;0.94;60.62;101231.79;108238;1254;62365;-77
2023/02/05 06:53:28;;;;;;;9.80;6.10;;;;;;;0.95;60.61;101230.79;108225;1252;60651;-77
2023/02/05 06:55:58;;;;;;;8.80;5.90;;;;;;;0.97;60.60;101228.16;108228;1256;74653;-78
2023/02/05 06:58:25;;;;;;;10.30;5.70;;;;;;;0.99;60.57;101231.15;108262;1254;73412;-78
2023/02/05 07:00:52;;;;;;;8.10;5.40;;;;;;;1.01;60.51;101233.53;108243;1254;73816;-79
2023/02/05 07:03:19;;;;;;;8.30;5.50;;;;;;;1.04;60.42;101227.79;108320;1253;61422;-78
2023/02/05 07:05:46;;;;;;;7.50;5.40;;;;;;;1.08;60.50;101230.77;108302;1254;61059;-78
2023/02/05 07:08:13;;;;;;;9.30;6.10;;;;;;;1.14;60.31;101224.91;108301;1253;73245;-79
2023/02/05 07:10:40;;;;;;;9.50;6.00;;;;;;;1.19;60.21;101233.65;108315;1254;72566;-78
2023/02/05 07:13:07;;;;;;;8.70;5.90;;;;;;;1.18;60.15;101233.19;108348;1253;72656;-78
2023/02/05 07:15:36;;;;;;;8.70;5.50;;;;;;;1.20;59.98;101240.02;108301;1252;60891;-78
2023/02/05 07:18:03;;;;;;;8.20;5.80;;;;;;;1.19;59.93;101243.45;108261;1253;61290;-78
2023/02/05 07:20:31;;;;;;;8.40;5.50;;;;;;;1.20;59.95;101238.73;108239;1254;73740;-78
2023/02/05 07:22:59;;;;;;;8.70;6.40;;;;;;;1.22;59.93;101243.41;108190;1253;71900;-78
2023/02/05 07:25:26;;;;;;;7.70;5.10;;;;;;;1.26;59.92;101240.81;108147;1254;71595;-78
2023/02/05 07:27:54;;;;;;;9.10;6.50;;;;;;;1.29;59.84;101243.65;108196;1253;61462;-78
2023/02/05 07:30:21;;;;;;;8.80;5.70;;;;;;;1.33;59.66;101249.17;108794;1253;60389;-78
2023/02/05 07:32:48;;;;;;;9.10;6.00;;;;;;;1.36;59.60;101247.64;108206;1254;74789;-78
2023/02/05 07:35:16;;;;;;;9.40;5.60;;;;;;;1.41;59.76;101247.52;108241;1254;72776;-78
2023/02/05 07:37:43;;;;;;;8.30;6.10;;;;;;;1.45;59.57;101248.16;108201;1253;71771;-79
2023/02/05 07:40:11;;;;;;;10.20;6.40;;;;;;;1.46;59.38;101246.48;108340;1252;62192;-78
2023/02/05 07:42:38;;;;;;;9.30;6.40;;;;;;;1.48;59.42;101240.61;108314;1253;60344;-79
2023/02/05 07:45:07;;;;;;;11.70;5.80;;;;;;;1.50;59.45;101242.41;108233;1253;73568;-80
2023/02/05 07:47:34;;;;;;;8.70;5.80;;;;;;;1.53;59.22;101241.54;108307;1254;74147;-79
2023/02/05 07:50:01;;;;;;;9.60;5.90;;;;;;;1.56;59.21;101244.34;108307;1254;72969;-78
2023/02/05 07:52:28;;;;;;;9.30;6.60;;;;;;;1.60;59.12;101248.20;108291;1254;61220;-78
2023/02/05 07:54:55;;;;;;;10.20;6.00;;;;;;;1.64;59.28;101249.71;108207;1254;61686;-77
2023/02/05 07:57:22;;;;;;;8.20;5.70;;;;;;;1.70;59.22;101246.23;108286;1254;72259;-78
2023/02/05 07:59:49;;;;;;;9.70;6.70;;;;;;;1.77;59.17;101242.98;108122;1253;154733;-78
2023/02/05 08:02:16;;;;;;;9.50;6.50;;;;;;;1.82;58.95;101242.04;108230;1253;73659;-79
2023/02/05 08:04:43;;;;;;;9.90;6.20;;;;;;;1.85;58.85;101248.34;108278;1253;62445;-77
2023/02/05 08:07:11;;;;;;;11.00;7.10;;;;;;;1.91;58.92;101245.70;108395;1253;60482;-75
2023/02/05 08:09:38;;;;;;;10.00;6.70;;;;;;;1.99;58.83;101248.44;108380;1254;74894;-78
2023/02/05 08:12:06;;;;;;;9.40;6.20;;;;;;;2.03;58.81;101251.02;108296;1253;72685;-79
2023/02/05 08:14:36;;;;;;;8.00;5.90;;;;;;;2.00;58.50;101255.63;108296;1253;71802;-78
2023/02/05 08:17:04;;;;;;;9.30;6.50;;;;;;;2.00;58.43;101257.21;108361;1253;62384;-77
2023/02/05 08:19:32;;;;;;;9.30;6.30;;;;;;;2.04;58.57;101259.20;108383;1254;61074;-79
2023/02/05 08:22:00;;;;;;;9.80;6.40;;;;;;;2.07;58.41;101265.70;108352;1256;74000;-81
2023/02/05 08:24:28;;;;;;;9.20;5.90;;;;;;;2.07;58.16;101263.00;108391;1256;72772;-79
2023/02/05 08:26:54;;;;;;;9.80;6.70;;;;;;;2.05;58.23;101268.52;108318;1254;72726;-78
2023/02/05 08:29:21;;;;;;;9.10;6.00;;;;;;;2.04;58.24;101276.46;108324;1253;60453;-80
2023/02/05 08:31:49;;;;;;;9.70;6.40;;;;;;;2.06;58.05;101274.40;108286;1254;60347;-77
2023/02/05 08:34:16;;;;;;;9.90;6.70;;;;;;;2.00;58.15;101284.16;108338;1253;74431;-80
2023/02/05 08:36:47;;;;;;;9.80;6.00;;;;;;;1.96;58.11;101284.77;108197;1258;73006;-79
2023/02/05 08:39:14;;;;;;;10.50;6.20;;;;;;;1.96;58.35;101287.55;108344;1254;72567;-77
2023/02/05 08:41:41;;;;;;;9.30;6.60;;;;;;;1.99;58.46;101298.14;108371;1253;61658;-79
2023/02/05 08:44:08;;;;;;;11.10;7.20;;;;;;;2.00;58.59;101288.11;108430;1253;60552;-78
2023/02/05 08:46:38;;;;;;;9.20;6.00;;;;;;;2.01;58.73;101290.27;108413;1253;73718;-78
2023/02/05 08:49:16;;;;;;;11.60;7.70;;;;;;;2.03;58.85;101290.54;108303;1254;72997;-78
2023/02/05 08:51:43;;;;;;;10.40;7.20;;;;;;;2.07;58.78;101285.36;108311;1254;73682;-77
2023/02/05 08:54:12;;;;;;;10.80;7.20;;;;;;;2.12;58.86;101285.95;108366;1254;60440;-79
2023/02/05 08:56:54;;;;;;;9.80;6.50;;;;;;;2.17;58.79;101288.96;108270;1253;60346;-80
2023/02/05 08:59:21;;;;;;;10.10;6.60;;;;;;;2.17;58.56;101287.34;108301;1253;74966;-79
2023/02/05 09:01:50;;;;;;;9.40;6.10;;;;;;;2.17;58.54;101295.31;108261;1256;72736;-78
2023/02/05 09:04:19;;;;;;;9.30;6.50;;;;;;;2.14;58.61;101297.73;108247;1253;72989;-77
2023/02/05 09:06:46;;;;;;;9.20;6.20;;;;;;;2.15;58.55;101302.52;108248;1253;60134;-78
2023/02/05 09:09:13;;;;;;;10.40;6.50;;;;;;;2.17;58.49;101300.55;108232;1254;60562;-77
2023/02/05 09:11:45;;;;;;;12.40;7.20;;;;;;;2.17;58.54;101307.58;108262;1254;73108;-77
2023/02/05 09:14:12;;;;;;;9.60;6.50;;;;;;;2.18;58.74;101304.86;108335;1252;71000;-79
2023/02/05 09:16:39;;;;;;;9.80;6.90;;;;;;;2.23;58.64;101303.35;108330;1253;72082;-78
2023/02/05 09:19:07;;;;;;;10.20;6.80;;;;;;;2.24;58.46;101303.66;108351;1253;62188;-80
2023/02/05 09:21:37;;;;;;;10.10;6.80;;;;;;;2.11;58.92;101303.98;108338;1253;61685;-77
2023/02/05 09:24:05;;;;;;;9.80;6.70;;;;;;;2.11;58.99;101301.58;108256;1254;73371;-77
2023/02/05 09:26:34;;;;;;;9.60;6.70;;;;;;;2.12;59.15;101299.03;108294;1254;72799;-78
2023/02/05 09:29:02;;;;;;;10.50;7.10;;;;;;;2.19;59.33;101297.96;108309;1252;71465;-78
2023/02/05 09:31:33;;;;;;;9.60;6.80;;;;;;;2.28;59.32;101296.23;108256;1252;62065;-78
2023/02/05 09:34:02;;;;;;;10.00;6.90;;;;;;;2.31;59.05;101290.73;108274;1253;61335;-77
2023/02/05 09:36:29;;;;;;;10.50;7.00;;;;;;;2.33;58.96;101287.63;108328;1252;75050;-77
2023/02/05 09:38:56;;;;;;;9.00;6.20;;;;;;;2.37;59.02;101290.71;108285;1254;72224;-77
2023/02/05 09:42:04;;;;;;;10.40;6.80;;;;;;;2.45;59.08;101287.48;108230;1253;72170;-78
2023/02/05 09:44:40;;;;;;;9.40;6.50;;;;;;;2.53;58.85;101290.94;108281;1253;60517;-78
2023/02/05 09:47:16;;;;;;;9.90;6.10;;;;;;;2.56;58.59;101288.98;108316;1254;60229;-77
2023/02/05 09:49:55;;;;;;;9.20;5.60;;;;;;;2.56;58.25;101285.12;108261;1253;74020;-77
2023/02/05 09:52:26;;;;;;;10.10;6.60;;;;;;;2.55;58.26;101285.36;108340;1254;73496;-77
2023/02/05 09:54:55;;;;;;;11.50;6.50;;;;;;;2.56;58.17;101289.14;108275;1254;72765;-77
2023/02/05 09:57:49;;;;;;;10.10;6.20;;;;;;;2.55;58.10;101292.18;108429;1253;61051;-79
2023/02/05 10:00:20;;;;;;;8.70;5.80;;;;;;;2.51;57.92;101295.41;108386;1253;60225;-77
2023/02/05 10:03:27;;;;;;;7.60;4.80;;;;;;;2.47;57.67;101297.04;108403;1256;71622;-78
2023/02/05 10:06:00;;;;;;;8.40;5.70;;;;;;;2.43;57.89;101298.58;108142;1253;72853;-77
2023/02/05 10:08:40;;;;;;;8.50;5.60;;;;;;;2.44;57.85;101302.95;108443;1253;71977;-79
2023/02/05 10:11:17;;;;;;;8.00;5.40;;;;;;;2.44;58.17;101302.89;108411;1253;61205;-78
2023/02/05 10:13:46;;;;;;;8.40;5.80;;;;;;;2.42;58.07;101303.27;108334;1253;60643;-78
2023/02/05 10:16:25;;;;;;;8.80;5.60;;;;;;;2.43;58.24;101303.02;108225;1252;73024;-78
2023/02/05 10:19:19;;;;;;;8.50;5.70;;;;;;;2.49;58.29;101309.70;108280;1254;72087;-77
2023/02/05 10:22:11;;;;;;;9.30;5.70;;;;;;;2.58;58.33;101311.55;108312;1254;71105;-77
2023/02/05 10:25:00;;;;;;;8.30;5.60;;;;;;;2.59;58.51;101310.52;108305;1254;60560;-77
2023/02/05 10:28:04;;;;;;;8.50;5.80;;;;;;;2.63;58.64;101316.85;108352;1253;60421;-77
2023/02/05 10:30:57;;;;;;;9.00;5.90;;;;;;;2.71;58.67;101320.41;108347;1253;74275;-77
2023/02/05 10:33:45;;;;;;;9.00;6.00;;;;;;;2.78;58.54;101325.02;108401;1254;70651;-76
2023/02/05 10:36:13;;;;;;;7.80;5.50;;;;;;;2.83;58.43;101322.77;108324;1254;71998;-79
2023/02/05 10:38:44;;;;;;;9.00;5.80;;;;;;;2.87;58.05;101323.33;108335;1254;60533;-76
2023/02/05 10:41:13;;;;;;;8.40;5.60;;;;;;;2.93;57.86;101324.75;108299;1253;60386;-76
2023/02/05 10:43:52;;;;;;;7.90;5.60;;;;;;;2.98;57.64;101323.52;108349;1254;73836;-76
2023/02/05 10:46:19;;;;;;;9.10;5.70;;;;;;;2.99;57.24;101330.66;108381;1254;75147;-76
2023/02/05 10:49:00;;;;;;;7.90;5.50;;;;;;;2.95;57.32;101329.58;108384;1254;73931;-74
2023/02/05 10:51:45;;;;;;;9.30;5.70;;;;;;;2.97;57.48;101333.66;108377;1252;61861;-78
2023/02/05 10:54:30;;;;;;;8.40;5.70;;;;;;;3.01;57.41;101338.20;108400;1253;59665;-78
2023/02/05 10:56:57;;;;;;;8.50;5.50;;;;;;;2.98;57.26;101339.56;108390;1253;72798;-78
2023/02/05 10:59:35;;;;;;;8.60;5.80;;;;;;;2.94;57.14;101342.73;108573;1253;72209;-76
2023/02/05 11:02:05;;;;;;;8.20;5.90;;;;;;;2.89;57.04;101341.97;108768;1253;72534;-77
2023/02/05 11:04:41;;;;;;;8.40;5.90;;;;;;;2.87;57.10;101347.12;108693;1253;61174;-76
2023/02/05 11:07:12;;;;;;;8.70;5.80;;;;;;;2.89;57.21;101345.80;108650;1254;59575;-75
2023/02/05 11:09:40;;;;;;;8.10;5.50;;;;;;;2.96;57.27;101345.82;108513;1256;74874;-76
2023/02/05 11:12:28;;;;;;;8.10;5.40;;;;;;;3.01;57.14;101344.21;108719;1252;71914;-74
2023/02/05 11:15:02;;;;;;;7.90;5.60;;;;;;;2.95;57.07;101350.48;108667;1253;70611;-75
2023/02/05 11:17:37;;;;;;;9.30;5.90;;;;;;;2.96;57.21;101353.63;108721;1254;60402;-76
2023/02/05 11:20:07;;;;;;;8.40;5.70;;;;;;;2.95;57.54;101352.52;108382;1253;60341;-75
2023/02/05 11:22:39;;;;;;;8.00;5.50;;;;;;;2.99;57.65;101349.51;108297;1253;74767;-77
2023/02/05 11:25:25;;;;;;;9.50;6.50;;;;;;;2.99;57.58;101351.25;108181;1253;71941;-77
2023/02/05 11:27:56;;;;;;;8.70;6.20;;;;;;;2.99;57.64;101347.02;108227;1254;72616;-76
2023/02/05 11:30:36;;;;;;;8.50;6.30;;;;;;;2.99;57.73;101351.23;108315;1253;60309;-76
2023/02/05 11:33:24;;;;;;;8.70;5.70;;;;;;;3.06;57.96;101353.93;108298;1253;61399;-78
2023/02/05 11:36:06;;;;;;;9.00;6.10;;;;;;;3.13;57.86;101356.97;108277;1253;72926;-78
2023/02/05 11:38:55;;;;;;;9.90;6.50;;;;;;;3.17;57.78;101353.80;108289;1253;73720;-77
2023/02/05 11:41:29;;;;;;;8.60;6.00;;;;;;;3.24;57.77;101358.94;108269;1253;73856;-77
2023/02/05 11:43:58;;;;;;;9.30;6.00;;;;;;;3.26;57.72;101359.08;108270;1253;60324;-77
2023/02/05 11:46:27;;;;;;;7.90;5.50;;;;;;;3.24;57.57;101359.42;108091;1254;60883;-77